Time;durP1;ratioP1;P1;durP2;ratioP2;P2;SDS_P1;SDS_P2;PMS_P1;PMS_P2;Temp;Humidity;BMP_temperature;BMP_pressure;BME280_temperature;BME280_humidity;BME280_pressure;Samples;Min_cycle;Max_cycle;Signal;HPM_P1;HPM_P2
2021/12/24 20:05:03;;;;;;;16.60;8.75;;;-0.10;99.80;;;;;;4959480;29;20058;-90
2021/12/24 20:08:25;;;;;;;;;;;;;;;;;;;;;
2021/12/24 20:17:59;;;;;;;;;;;;;;;;;;;;;
2021/12/24 20:20:50;;;;;;;;;;;;;;;;;;;;;
2021/12/24 20:27:06;;;;;;;;;;;;;;;;;;;;;
2021/12/24 20:30:14;;;;;;;21.45;9.18;;;0.00;99.90;;;;;;4959293;29;20045;-91
2021/12/24 20:39:24;;;;;;;20.33;9.93;;;0.10;99.90;;;;;;4885308;29;20036;-90
2021/12/24 20:44:56;;;;;;;;;;;;;;;;;;;;;
2021/12/24 20:47:32;;;;;;;16.90;9.10;;;0.20;99.90;;;;;;4959214;29;20389;-91
2021/12/24 20:50:13;;;;;;;;;;;;;;;;;;;;;
2021/12/24 20:53:29;;;;;;;;;;;;;;;;;;;;;
2021/12/24 20:59:34;;;;;;;19.55;9.77;;;0.30;99.90;;;;;;4945592;29;20051;-89
2021/12/24 21:02:30;;;;;;;23.63;10.10;;;0.30;99.90;;;;;;4952836;29;20047;-88
2021/12/24 21:05:29;;;;;;;;;;;;;;;;;;;;;
2021/12/24 21:08:14;;;;;;;15.65;7.88;;;0.30;99.90;;;;;;4982037;29;20067;-87
2021/12/24 21:10:55;;;;;;;15.38;7.90;;;0.30;99.90;;;;;;4952496;29;20067;-89
2021/12/24 21:13:23;;;;;;;16.65;8.23;;;0.40;99.90;;;;;;4942175;29;20054;-88
2021/12/24 21:15:58;;;;;;;15.15;8.73;;;0.40;99.90;;;;;;4941870;29;20035;-89
2021/12/24 21:18:29;;;;;;;15.75;9.13;;;0.40;99.90;;;;;;4942133;29;20114;-88
2021/12/24 21:24:15;;;;;;;21.40;9.57;;;0.50;99.90;;;;;;4958545;29;20134;-89
2021/12/24 21:26:42;;;;;;;16.20;9.30;;;0.60;99.90;;;;;;4955232;29;20035;-89
2021/12/24 21:29:47;;;;;;;25.38;11.18;;;0.50;99.90;;;;;;4941421;29;20126;-89
2021/12/24 21:32:26;;;;;;;;;;;;;;;;;;;;;
2021/12/24 21:35:12;;;;;;;15.65;9.02;;;0.60;99.90;;;;;;4958054;29;20032;-89
2021/12/24 21:38:12;;;;;;;20.05;9.88;;;0.60;99.90;;;;;;4940895;29;20054;-90
2021/12/24 21:40:49;;;;;;;16.63;10.15;;;0.60;99.90;;;;;;4940716;29;20442;-90
2021/12/24 21:43:34;;;;;;;17.63;8.40;;;0.60;99.90;;;;;;4941060;29;20042;-88
2021/12/24 21:46:23;;;;;;;17.70;9.30;;;0.60;99.90;;;;;;4941243;29;20142;-90
2021/12/24 21:48:56;;;;;;;16.70;9.52;;;0.70;99.90;;;;;;4939478;29;20050;-89
2021/12/24 21:51:30;;;;;;;14.75;8.63;;;0.60;99.90;;;;;;4940582;29;20090;-89
2021/12/24 21:54:33;;;;;;;;;;;;;;;;;;;;;
2021/12/24 21:57:03;;;;;;;14.67;9.67;;;0.70;99.90;;;;;;4956980;28;20047;-90
2021/12/24 21:59:49;;;;;;;;;;;;;;;;;;;;;
2021/12/24 22:02:26;;;;;;;18.60;8.57;;;0.80;99.90;;;;;;4958506;29;20042;-92
2021/12/24 22:08:32;;;;;;;17.13;9.77;;;0.90;99.90;;;;;;4957956;29;20047;-91
2021/12/24 22:11:25;;;;;;;16.23;9.13;;;0.90;99.90;;;;;;4942287;29;20039;-94
2021/12/24 22:14:16;;;;;;;15.88;9.35;;;0.90;99.90;;;;;;4954426;29;20035;-95
2021/12/24 22:17:23;;;;;;;;;;;;;;;;;;;;;
2021/12/24 22:23:16;;;;;;;15.55;8.82;;;0.90;99.90;;;;;;4954656;28;20077;-92
2021/12/24 22:26:32;;;;;;;17.98;9.38;;;0.90;99.90;;;;;;4956967;29;20042;-91
2021/12/24 22:35:44;;;;;;;20.58;11.02;;;1.00;99.90;;;;;;4903636;29;20111;-90
2021/12/24 22:38:53;;;;;;;16.33;8.75;;;1.10;99.90;;;;;;4942427;29;20486;-92
2021/12/24 22:41:58;;;;;;;;;;;;;;;;;;;;;
2021/12/24 22:48:42;;;;;;;;;;;;;;;;;;;;;
2021/12/24 22:55:41;;;;;;;;;;;;;;;;;;;;;
2021/12/24 23:10:26;;;;;;;10.63;7.53;;;1.50;99.90;;;;;;4956170;29;20062;-92
2021/12/24 23:12:59;;;;;;;12.43;7.10;;;1.50;99.90;;;;;;4943092;29;20039;-93
2021/12/24 23:15:27;;;;;;;15.40;8.55;;;1.60;99.90;;;;;;4943885;29;20099;-93
2021/12/24 23:18:02;;;;;;;13.60;7.47;;;1.70;99.90;;;;;;4932541;29;20031;-93
2021/12/24 23:20:44;;;;;;;;;;;;;;;;;;;;;
2021/12/24 23:23:23;;;;;;;16.98;8.43;;;1.80;99.90;;;;;;4945970;29;20123;-92
2021/12/24 23:25:51;;;;;;;13.45;7.80;;;1.80;99.90;;;;;;4928602;29;20040;-92
2021/12/24 23:28:21;;;;;;;13.07;8.00;;;1.90;99.90;;;;;;4926536;29;20074;-91
2021/12/24 23:31:17;;;;;;;14.10;7.15;;;1.90;99.90;;;;;;4927453;29;20086;-91
2021/12/24 23:33:56;;;;;;;14.10;8.38;;;1.90;99.90;;;;;;4924229;29;20032;-92
2021/12/24 23:36:44;;;;;;;14.20;6.85;;;2.00;99.90;;;;;;4925469;29;20036;-92
2021/12/24 23:39:10;;;;;;;11.07;6.53;;;2.10;99.90;;;;;;4941437;29;20039;-92
2021/12/24 23:41:36;;;;;;;13.70;8.13;;;2.10;99.90;;;;;;4943061;29;20042;-91
2021/12/24 23:44:10;;;;;;;16.20;7.57;;;2.20;99.90;;;;;;4942750;29;20039;-91
2021/12/24 23:49:06;;;;;;;10.48;7.57;;;2.20;99.90;;;;;;4960499;29;20434;-92
2021/12/24 23:51:32;;;;;;;13.00;7.50;;;2.30;99.90;;;;;;4944136;29;20098;-91
2021/12/24 23:53:58;;;;;;;10.60;5.90;;;2.30;99.90;;;;;;4948789;29;20657;-91
2021/12/24 23:56:25;;;;;;;10.48;6.85;;;2.40;99.90;;;;;;4954558;29;20038;-91
2021/12/24 23:58:51;;;;;;;9.30;6.45;;;2.40;99.90;;;;;;4962418;29;20020;-90
